sensor_id;sensor_type;location;lat;lon;timestamp;pressure;altitude;pressure_sealevel;temperature;humidity
21781;BME280;52576;53.614;9.894;2023-01-29T00:00:42;102450.22;;;2.02;86.12
21781;BME280;52576;53.614;9.894;2023-01-29T00:02:45;102448.50;;;2.04;86.05
21781;BME280;52576;53.614;9.894;2023-01-29T00:04:50;102445.91;;;2.04;86.11
21781;BME280;52576;53.614;9.894;2023-01-29T00:06:53;102445.03;;;2.05;85.96
21781;BME280;52576;53.614;9.894;2023-01-29T00:08:56;102442.47;;;2.05;86.09
21781;BME280;52576;53.614;9.894;2023-01-29T00:11:00;102439.88;;;2.07;86.06
21781;BME280;52576;53.614;9.894;2023-01-29T00:13:03;102435.56;;;2.07;86.23
21781;BME280;52576;53.614;9.894;2023-01-29T00:15:06;102441.59;;;2.08;86.26
21781;BME280;52576;53.614;9.894;2023-01-29T00:17:10;102443.31;;;2.07;86.20
21781;BME280;52576;53.614;9.894;2023-01-29T00:19:13;102434.66;;;2.08;86.22
21781;BME280;52576;53.614;9.894;2023-01-29T00:21:18;102426.06;;;2.06;86.19
21781;BME280;52576;53.614;9.894;2023-01-29T00:23:22;102413.16;;;2.06;86.27
21781;BME280;52576;53.614;9.894;2023-01-29T00:25:26;102405.38;;;2.06;86.19
21781;BME280;52576;53.614;9.894;2023-01-29T00:27:29;102398.50;;;2.05;86.35
21781;BME280;52576;53.614;9.894;2023-01-29T00:29:32;102394.19;;;2.06;86.53
21781;BME280;52576;53.614;9.894;2023-01-29T00:31:35;102400.22;;;2.06;86.34
21781;BME280;52576;53.614;9.894;2023-01-29T00:33:41;102389.88;;;2.06;86.47
21781;BME280;52576;53.614;9.894;2023-01-29T00:35:44;102384.69;;;2.06;86.61
21781;BME280;52576;53.614;9.894;2023-01-29T00:37:48;102387.28;;;2.08;86.83
21781;BME280;52576;53.614;9.894;2023-01-29T00:39:52;102388.09;;;2.10;86.60
21781;BME280;52576;53.614;9.894;2023-01-29T00:41:55;102401.88;;;2.09;86.69
21781;BME280;52576;53.614;9.894;2023-01-29T00:44:12;102394.13;;;2.09;86.83
21781;BME280;52576;53.614;9.894;2023-01-29T00:46:33;102395.00;;;2.09;86.75
21781;BME280;52576;53.614;9.894;2023-01-29T00:48:36;102403.63;;;2.08;86.89
21781;BME280;52576;53.614;9.894;2023-01-29T00:50:40;102406.19;;;2.08;86.73
21781;BME280;52576;53.614;9.894;2023-01-29T00:52:43;102398.44;;;2.08;86.91
21781;BME280;52576;53.614;9.894;2023-01-29T00:54:48;102403.63;;;2.08;86.93
21781;BME280;52576;53.614;9.894;2023-01-29T00:56:51;102402.75;;;2.09;86.87
21781;BME280;52576;53.614;9.894;2023-01-29T00:58:54;102408.78;;;2.11;87.01
21781;BME280;52576;53.614;9.894;2023-01-29T01:00:57;102415.66;;;2.12;87.07
21781;BME280;52576;53.614;9.894;2023-01-29T01:03:02;102413.94;;;2.13;86.91
21781;BME280;52576;53.614;9.894;2023-01-29T01:05:10;102410.50;;;2.12;87.19
21781;BME280;52576;53.614;9.894;2023-01-29T01:07:15;102406.19;;;2.13;87.02
21781;BME280;52576;53.614;9.894;2023-01-29T01:09:18;102412.22;;;2.13;87.14
21781;BME280;52576;53.614;9.894;2023-01-29T01:11:40;102401.88;;;2.13;87.21
21781;BME280;52576;53.614;9.894;2023-01-29T01:13:43;102404.47;;;2.13;87.13
21781;BME280;52576;53.614;9.894;2023-01-29T01:15:46;102403.59;;;2.14;87.21
21781;BME280;52576;53.614;9.894;2023-01-29T01:17:53;102402.72;;;2.15;87.24
21781;BME280;52576;53.614;9.894;2023-01-29T01:19:57;102408.75;;;2.14;87.41
21781;BME280;52576;53.614;9.894;2023-01-29T01:22:00;102405.31;;;2.15;87.33
21781;BME280;52576;53.614;9.894;2023-01-29T01:24:05;102407.91;;;2.15;87.31
21781;BME280;52576;53.614;9.894;2023-01-29T01:26:09;102405.31;;;2.15;87.17
21781;BME280;52576;53.614;9.894;2023-01-29T01:28:14;102412.19;;;2.16;87.23
21781;BME280;52576;53.614;9.894;2023-01-29T01:30:17;102419.09;;;2.14;87.52
21781;BME280;52576;53.614;9.894;2023-01-29T01:32:20;102426.88;;;2.14;87.55
21781;BME280;52576;53.614;9.894;2023-01-29T01:34:24;102415.66;;;2.15;87.45
21781;BME280;52576;53.614;9.894;2023-01-29T01:36:27;102415.66;;;2.15;87.40
21781;BME280;52576;53.614;9.894;2023-01-29T01:38:33;102406.16;;;2.16;87.57
21781;BME280;52576;53.614;9.894;2023-01-29T01:40:36;102404.44;;;2.16;87.49
21781;BME280;52576;53.614;9.894;2023-01-29T01:42:39;102417.38;;;2.18;87.38
21781;BME280;52576;53.614;9.894;2023-01-29T01:45:06;102409.59;;;2.19;87.52
21781;BME280;52576;53.614;9.894;2023-01-29T01:47:11;102408.75;;;2.19;87.57
21781;BME280;52576;53.614;9.894;2023-01-29T01:49:17;102404.41;;;2.21;87.58
21781;BME280;52576;53.614;9.894;2023-01-29T01:51:23;102400.09;;;2.21;87.73
21781;BME280;52576;53.614;9.894;2023-01-29T01:53:30;102404.41;;;2.22;87.80
21781;BME280;52576;53.614;9.894;2023-01-29T01:55:43;102407.00;;;2.22;87.80
21781;BME280;52576;53.614;9.894;2023-01-29T01:57:49;102401.81;;;2.22;87.75
21781;BME280;52576;53.614;9.894;2023-01-29T01:59:58;102400.97;;;2.23;87.82
21781;BME280;52576;53.614;9.894;2023-01-29T02:02:16;102404.41;;;2.24;87.77
21781;BME280;52576;53.614;9.894;2023-01-29T02:04:45;102394.91;;;2.24;87.83
21781;BME280;52576;53.614;9.894;2023-01-29T02:07:10;102396.63;;;2.25;87.85
21781;BME280;52576;53.614;9.894;2023-01-29T02:09:35;102399.22;;;2.27;88.06
21781;BME280;52576;53.614;9.894;2023-01-29T02:11:41;102392.31;;;2.27;87.84
21781;BME280;52576;53.614;9.894;2023-01-29T02:13:45;102395.75;;;2.28;88.00
21781;BME280;52576;53.614;9.894;2023-01-29T02:15:59;102394.91;;;2.27;88.13
21781;BME280;52576;53.614;9.894;2023-01-29T02:18:04;102390.59;;;2.28;87.93
21781;BME280;52576;53.614;9.894;2023-01-29T02:20:11;102389.72;;;2.27;87.98
21781;BME280;52576;53.614;9.894;2023-01-29T02:22:37;102394.91;;;2.27;87.99
21781;BME280;52576;53.614;9.894;2023-01-29T02:25:03;102388.00;;;2.29;88.00
21781;BME280;52576;53.614;9.894;2023-01-29T02:27:12;102379.34;;;2.30;88.14
21781;BME280;52576;53.614;9.894;2023-01-29T02:29:22;102378.50;;;2.31;88.01
21781;BME280;52576;53.614;9.894;2023-01-29T02:31:31;102375.91;;;2.31;88.01
21781;BME280;52576;53.614;9.894;2023-01-29T02:33:47;102376.75;;;2.32;88.23
21781;BME280;52576;53.614;9.894;2023-01-29T02:35:59;102374.16;;;2.33;88.39
21781;BME280;52576;53.614;9.894;2023-01-29T02:38:11;102370.72;;;2.33;88.12
21781;BME280;52576;53.614;9.894;2023-01-29T02:40:28;102357.75;;;2.34;88.21
21781;BME280;52576;53.614;9.894;2023-01-29T02:42:34;102357.75;;;2.34;88.35
21781;BME280;52576;53.614;9.894;2023-01-29T02:44:47;102363.78;;;2.35;88.29
21781;BME280;52576;53.614;9.894;2023-01-29T02:46:57;102356.00;;;2.35;88.31
21781;BME280;52576;53.614;9.894;2023-01-29T02:49:09;102358.59;;;2.36;88.37
21781;BME280;52576;53.614;9.894;2023-01-29T02:51:18;102353.41;;;2.36;88.21
21781;BME280;52576;53.614;9.894;2023-01-29T02:53:27;102349.97;;;2.37;88.39
21781;BME280;52576;53.614;9.894;2023-01-29T02:55:35;102356.00;;;2.38;88.22
21781;BME280;52576;53.614;9.894;2023-01-29T02:57:42;102337.88;;;2.39;88.24
21781;BME280;52576;53.614;9.894;2023-01-29T02:59:51;102347.38;;;2.39;88.15
21781;BME280;52576;53.614;9.894;2023-01-29T03:02:00;102337.88;;;2.39;88.23
21781;BME280;52576;53.614;9.894;2023-01-29T03:04:10;102334.41;;;2.41;88.32
21781;BME280;52576;53.614;9.894;2023-01-29T03:06:18;102325.78;;;2.42;88.27
21781;BME280;52576;53.614;9.894;2023-01-29T03:08:30;102320.59;;;2.42;88.41
21781;BME280;52576;53.614;9.894;2023-01-29T03:10:46;102318.88;;;2.44;88.25
21781;BME280;52576;53.614;9.894;2023-01-29T03:12:56;102316.25;;;2.45;88.29
21781;BME280;52576;53.614;9.894;2023-01-29T03:15:07;102311.09;;;2.45;88.37
21781;BME280;52576;53.614;9.894;2023-01-29T03:17:20;102299.88;;;2.45;88.25
21781;BME280;52576;53.614;9.894;2023-01-29T03:19:31;102308.50;;;2.47;88.21
21781;BME280;52576;53.614;9.894;2023-01-29T03:21:44;102299.84;;;2.48;88.18
21781;BME280;52576;53.614;9.894;2023-01-29T03:23:57;102305.91;;;2.48;88.24
21781;BME280;52576;53.614;9.894;2023-01-29T03:26:21;102301.56;;;2.49;88.24
21781;BME280;52576;53.614;9.894;2023-01-29T03:28:42;102291.22;;;2.49;88.11
21781;BME280;52576;53.614;9.894;2023-01-29T03:31:09;102296.41;;;2.46;88.24
21781;BME280;52576;53.614;9.894;2023-01-29T03:33:39;102302.47;;;2.46;88.28
21781;BME280;52576;53.614;9.894;2023-01-29T03:35:48;102293.00;;;2.44;88.01
21781;BME280;52576;53.614;9.894;2023-01-29T03:37:53;102294.72;;;2.45;88.23
21781;BME280;52576;53.614;9.894;2023-01-29T03:39:57;102299.88;;;2.45;88.17
21781;BME280;52576;53.614;9.894;2023-01-29T03:42:04;102294.72;;;2.45;88.07
21781;BME280;52576;53.614;9.894;2023-01-29T03:44:16;102300.75;;;2.45;88.38
21781;BME280;52576;53.614;9.894;2023-01-29T03:46:26;102300.72;;;2.47;88.12
21781;BME280;52576;53.614;9.894;2023-01-29T03:48:35;102291.25;;;2.46;88.07
21781;BME280;52576;53.614;9.894;2023-01-29T03:50:46;102292.97;;;2.47;88.11
21781;BME280;52576;53.614;9.894;2023-01-29T03:53:00;102294.72;;;2.45;88.16
21781;BME280;52576;53.614;9.894;2023-01-29T03:55:12;102296.41;;;2.47;88.13
21781;BME280;52576;53.614;9.894;2023-01-29T03:57:23;102298.13;;;2.47;87.99
21781;BME280;52576;53.614;9.894;2023-01-29T03:59:33;102293.81;;;2.47;87.85
21781;BME280;52576;53.614;9.894;2023-01-29T04:01:51;102287.78;;;2.47;88.06
21781;BME280;52576;53.614;9.894;2023-01-29T04:03:58;102288.66;;;2.44;87.98
21781;BME280;52576;53.614;9.894;2023-01-29T04:06:09;102287.81;;;2.44;88.06
21781;BME280;52576;53.614;9.894;2023-01-29T04:08:28;102284.38;;;2.42;87.95
21781;BME280;52576;53.614;9.894;2023-01-29T04:10:35;102284.38;;;2.40;88.26
21781;BME280;52576;53.614;9.894;2023-01-29T04:12:44;102278.38;;;2.38;87.95
21781;BME280;52576;53.614;9.894;2023-01-29T04:14:50;102278.38;;;2.36;88.11
21781;BME280;52576;53.614;9.894;2023-01-29T04:16:59;102284.44;;;2.35;88.07
21781;BME280;52576;53.614;9.894;2023-01-29T04:19:19;102282.72;;;2.34;88.05
21781;BME280;52576;53.614;9.894;2023-01-29T04:21:24;102273.25;;;2.33;88.20
21781;BME280;52576;53.614;9.894;2023-01-29T04:23:27;102281.03;;;2.33;88.24
21781;BME280;52576;53.614;9.894;2023-01-29T04:25:36;102284.47;;;2.32;88.31
21781;BME280;52576;53.614;9.894;2023-01-29T04:27:53;102280.19;;;2.31;88.03
21781;BME280;52576;53.614;9.894;2023-01-29T04:30:11;102271.56;;;2.29;88.16
21781;BME280;52576;53.614;9.894;2023-01-29T04:32:26;102277.59;;;2.28;88.12
21781;BME280;52576;53.614;9.894;2023-01-29T04:34:40;102277.59;;;2.28;88.07
21781;BME280;52576;53.614;9.894;2023-01-29T04:36:58;102275.03;;;2.28;88.24
21781;BME280;52576;53.614;9.894;2023-01-29T04:39:10;102286.25;;;2.27;88.15
21781;BME280;52576;53.614;9.894;2023-01-29T04:41:21;102287.09;;;2.26;88.24
21781;BME280;52576;53.614;9.894;2023-01-29T04:43:27;102280.22;;;2.25;88.12
21781;BME280;52576;53.614;9.894;2023-01-29T04:45:38;102291.44;;;2.24;88.25
21781;BME280;52576;53.614;9.894;2023-01-29T04:47:51;102290.56;;;2.24;88.08
21781;BME280;52576;53.614;9.894;2023-01-29T04:50:03;102295.75;;;2.24;88.12
21781;BME280;52576;53.614;9.894;2023-01-29T04:52:16;102290.56;;;2.25;88.39
21781;BME280;52576;53.614;9.894;2023-01-29T04:54:30;102294.00;;;2.26;88.19
21781;BME280;52576;53.614;9.894;2023-01-29T04:56:41;102302.63;;;2.26;88.17
21781;BME280;52576;53.614;9.894;2023-01-29T04:58:53;102294.88;;;2.26;88.28
21781;BME280;52576;53.614;9.894;2023-01-29T05:00:58;102291.44;;;2.24;88.14
21781;BME280;52576;53.614;9.894;2023-01-29T05:03:04;102287.97;;;2.25;88.28
21781;BME280;52576;53.614;9.894;2023-01-29T05:05:12;102288.84;;;2.26;88.12
21781;BME280;52576;53.614;9.894;2023-01-29T05:07:17;102281.09;;;2.24;88.05
21781;BME280;52576;53.614;9.894;2023-01-29T05:09:22;102267.31;;;2.22;88.26
21781;BME280;52576;53.614;9.894;2023-01-29T05:11:28;102276.78;;;2.22;88.24
21781;BME280;52576;53.614;9.894;2023-01-29T05:13:36;102275.94;;;2.21;88.25
21781;BME280;52576;53.614;9.894;2023-01-29T05:15:43;102263.88;;;2.22;88.18
21781;BME280;52576;53.614;9.894;2023-01-29T05:17:48;102257.84;;;2.21;88.21
21781;BME280;52576;53.614;9.894;2023-01-29T05:19:54;102263.00;;;2.21;87.93
21781;BME280;52576;53.614;9.894;2023-01-29T05:21:58;102260.41;;;2.21;88.16
21781;BME280;52576;53.614;9.894;2023-01-29T05:24:07;102260.41;;;2.21;88.18
21781;BME280;52576;53.614;9.894;2023-01-29T05:26:10;102269.03;;;2.20;88.18
21781;BME280;52576;53.614;9.894;2023-01-29T05:28:32;102256.97;;;2.19;88.36
21781;BME280;52576;53.614;9.894;2023-01-29T05:30:37;102263.88;;;2.20;88.25
21781;BME280;52576;53.614;9.894;2023-01-29T05:32:40;102269.91;;;2.19;88.19
21781;BME280;52576;53.614;9.894;2023-01-29T05:34:44;102269.03;;;2.20;88.18
21781;BME280;52576;53.614;9.894;2023-01-29T05:36:48;102254.38;;;2.21;88.43
21781;BME280;52576;53.614;9.894;2023-01-29T05:38:52;102251.78;;;2.22;88.28
21781;BME280;52576;53.614;9.894;2023-01-29T05:40:57;102250.06;;;2.21;88.35
21781;BME280;52576;53.614;9.894;2023-01-29T05:43:00;102241.44;;;2.22;88.15
21781;BME280;52576;53.614;9.894;2023-01-29T05:45:04;102235.41;;;2.22;88.17
21781;BME280;52576;53.614;9.894;2023-01-29T05:47:07;102254.38;;;2.21;88.17
21781;BME280;52576;53.614;9.894;2023-01-29T05:49:11;102255.25;;;2.21;88.09
21781;BME280;52576;53.614;9.894;2023-01-29T05:51:14;102269.03;;;2.20;87.94
21781;BME280;52576;53.614;9.894;2023-01-29T05:53:19;102268.19;;;2.20;88.10
21781;BME280;52576;53.614;9.894;2023-01-29T05:55:22;102264.75;;;2.19;88.02
21781;BME280;52576;53.614;9.894;2023-01-29T05:57:25;102267.34;;;2.18;88.05
21781;BME280;52576;53.614;9.894;2023-01-29T05:59:28;102263.91;;;2.17;87.97
21781;BME280;52576;53.614;9.894;2023-01-29T06:01:32;102256.16;;;2.16;87.93
21781;BME280;52576;53.614;9.894;2023-01-29T06:03:36;102256.13;;;2.17;88.09
21781;BME280;52576;53.614;9.894;2023-01-29T06:05:39;102247.53;;;2.17;87.84
21781;BME280;52576;53.614;9.894;2023-01-29T06:07:42;102248.38;;;2.17;87.89
21781;BME280;52576;53.614;9.894;2023-01-29T06:09:48;102250.09;;;2.18;87.99
21781;BME280;52576;53.614;9.894;2023-01-29T06:11:51;102259.56;;;2.19;88.01
21781;BME280;52576;53.614;9.894;2023-01-29T06:13:54;102247.50;;;2.20;87.91
21781;BME280;52576;53.614;9.894;2023-01-29T06:15:57;102228.53;;;2.19;87.80
21781;BME280;52576;53.614;9.894;2023-01-29T06:18:01;102234.56;;;2.18;87.77
21781;BME280;52576;53.614;9.894;2023-01-29T06:20:05;102224.22;;;2.18;87.75
21781;BME280;52576;53.614;9.894;2023-01-29T06:22:08;102221.66;;;2.17;87.69
21781;BME280;52576;53.614;9.894;2023-01-29T06:24:11;102229.41;;;2.17;87.72
21781;BME280;52576;53.614;9.894;2023-01-29T06:26:16;102225.97;;;2.16;87.67
21781;BME280;52576;53.614;9.894;2023-01-29T06:28:19;102215.59;;;2.18;87.71
21781;BME280;52576;53.614;9.894;2023-01-29T06:30:22;102206.97;;;2.19;87.66
21781;BME280;52576;53.614;9.894;2023-01-29T06:32:26;102194.03;;;2.19;87.63
21781;BME280;52576;53.614;9.894;2023-01-29T06:34:29;102198.34;;;2.18;87.72
21781;BME280;52576;53.614;9.894;2023-01-29T06:36:32;102191.47;;;2.17;87.53
21781;BME280;52576;53.614;9.894;2023-01-29T06:38:36;102194.94;;;2.16;87.53
21781;BME280;52576;53.614;9.894;2023-01-29T06:40:39;102188.03;;;2.15;87.49
21781;BME280;52576;53.614;9.894;2023-01-29T06:42:43;102182.00;;;2.16;87.40
21781;BME280;52576;53.614;9.894;2023-01-29T06:44:46;102193.22;;;2.15;87.58
21781;BME280;52576;53.614;9.894;2023-01-29T06:46:50;102201.84;;;2.14;87.30
21781;BME280;52576;53.614;9.894;2023-01-29T06:48:53;102206.16;;;2.14;87.34
21781;BME280;52576;53.614;9.894;2023-01-29T06:51:01;102194.94;;;2.13;87.27
21781;BME280;52576;53.614;9.894;2023-01-29T06:53:04;102185.47;;;2.14;87.26
21781;BME280;52576;53.614;9.894;2023-01-29T06:55:08;102183.72;;;2.14;87.16
21781;BME280;52576;53.614;9.894;2023-01-29T06:57:11;102182.88;;;2.15;87.10
21781;BME280;52576;53.614;9.894;2023-01-29T06:59:16;102185.44;;;2.17;87.21
21781;BME280;52576;53.614;9.894;2023-01-29T07:01:19;102189.75;;;2.16;87.00
21781;BME280;52576;53.614;9.894;2023-01-29T07:03:36;102186.28;;;2.17;86.96
21781;BME280;52576;53.614;9.894;2023-01-29T07:05:39;102175.94;;;2.17;86.92
21781;BME280;52576;53.614;9.894;2023-01-29T07:07:42;102176.81;;;2.16;86.79
21781;BME280;52576;53.614;9.894;2023-01-29T07:09:46;102179.41;;;2.16;86.96
21781;BME280;52576;53.614;9.894;2023-01-29T07:11:49;102185.44;;;2.15;86.94
21781;BME280;52576;53.614;9.894;2023-01-29T07:13:52;102186.28;;;2.17;86.63
21781;BME280;52576;53.614;9.894;2023-01-29T07:15:58;102197.50;;;2.18;86.68
21781;BME280;52576;53.614;9.894;2023-01-29T07:18:02;102193.19;;;2.18;86.75
21781;BME280;52576;53.614;9.894;2023-01-29T07:20:14;102195.78;;;2.18;86.48
21781;BME280;52576;53.614;9.894;2023-01-29T07:22:18;102193.19;;;2.18;86.57
21781;BME280;52576;53.614;9.894;2023-01-29T07:24:22;102193.19;;;2.18;86.42
21781;BME280;52576;53.614;9.894;2023-01-29T07:26:25;102191.47;;;2.17;86.31
21781;BME280;52576;53.614;9.894;2023-01-29T07:28:29;102188.88;;;2.17;86.49
21781;BME280;52576;53.614;9.894;2023-01-29T07:30:33;102189.75;;;2.16;86.19
21781;BME280;52576;53.614;9.894;2023-01-29T07:32:38;102181.16;;;2.14;86.35
21781;BME280;52576;53.614;9.894;2023-01-29T07:34:41;102177.72;;;2.12;86.09
21781;BME280;52576;53.614;9.894;2023-01-29T07:36:45;102183.75;;;2.13;86.22
21781;BME280;52576;53.614;9.894;2023-01-29T07:38:49;102179.47;;;2.09;86.05
21781;BME280;52576;53.614;9.894;2023-01-29T07:40:52;102170.84;;;2.08;86.15
21781;BME280;52576;53.614;9.894;2023-01-29T07:42:59;102161.41;;;2.07;85.97
21781;BME280;52576;53.614;9.894;2023-01-29T07:45:03;102159.69;;;2.06;86.00
21781;BME280;52576;53.614;9.894;2023-01-29T07:47:06;102160.56;;;2.05;85.95
21781;BME280;52576;53.614;9.894;2023-01-29T07:49:11;102151.09;;;2.04;85.91
21781;BME280;52576;53.614;9.894;2023-01-29T07:51:14;102150.25;;;2.02;85.78
21781;BME280;52576;53.614;9.894;2023-01-29T07:53:19;102154.56;;;2.03;85.62
21781;BME280;52576;53.614;9.894;2023-01-29T07:55:23;102153.69;;;2.04;85.49
21781;BME280;52576;53.614;9.894;2023-01-29T07:57:26;102156.25;;;2.06;85.80
21781;BME280;52576;53.614;9.894;2023-01-29T07:59:31;102157.09;;;2.08;85.70
21781;BME280;52576;53.614;9.894;2023-01-29T08:01:34;102146.72;;;2.09;85.66
21781;BME280;52576;53.614;9.894;2023-01-29T08:03:38;102162.22;;;2.11;85.57
21781;BME280;52576;53.614;9.894;2023-01-29T08:05:43;102161.34;;;2.10;85.62
21781;BME280;52576;53.614;9.894;2023-01-29T08:07:51;102156.16;;;2.12;85.44
21781;BME280;52576;53.614;9.894;2023-01-29T08:10:08;102153.56;;;2.13;85.43
21781;BME280;52576;53.614;9.894;2023-01-29T08:12:11;102151.81;;;2.15;85.53
21781;BME280;52576;53.614;9.894;2023-01-29T08:14:15;102156.13;;;2.18;85.50
21781;BME280;52576;53.614;9.894;2023-01-29T08:16:18;102153.50;;;2.19;85.35
21781;BME280;52576;53.614;9.894;2023-01-29T08:18:21;102150.06;;;2.20;85.42
21781;BME280;52576;53.614;9.894;2023-01-29T08:20:25;102148.31;;;2.22;85.14
21781;BME280;52576;53.614;9.894;2023-01-29T08:22:29;102143.97;;;2.26;85.44
21781;BME280;52576;53.614;9.894;2023-01-29T08:24:32;102150.84;;;2.28;85.21
21781;BME280;52576;53.614;9.894;2023-01-29T08:26:55;102148.25;;;2.30;85.30
21781;BME280;52576;53.614;9.894;2023-01-29T08:28:58;102149.94;;;2.32;85.45
21781;BME280;52576;53.614;9.894;2023-01-29T08:31:01;102155.06;;;2.35;85.25
21781;BME280;52576;53.614;9.894;2023-01-29T08:33:05;102144.72;;;2.35;85.20
21781;BME280;52576;53.614;9.894;2023-01-29T08:35:08;102148.16;;;2.36;85.21
21781;BME280;52576;53.614;9.894;2023-01-29T08:37:11;102142.97;;;2.37;85.00
21781;BME280;52576;53.614;9.894;2023-01-29T08:39:16;102148.13;;;2.37;85.03
21781;BME280;52576;53.614;9.894;2023-01-29T08:41:19;102136.91;;;2.38;85.07
21781;BME280;52576;53.614;9.894;2023-01-29T08:43:22;102139.47;;;2.42;85.04
21781;BME280;52576;53.614;9.894;2023-01-29T08:45:25;102132.53;;;2.44;84.93
21781;BME280;52576;53.614;9.894;2023-01-29T08:47:29;102137.69;;;2.48;85.07
21781;BME280;52576;53.614;9.894;2023-01-29T08:49:32;102136.78;;;2.51;84.99
21781;BME280;52576;53.614;9.894;2023-01-29T08:51:35;102136.78;;;2.51;84.97
21781;BME280;52576;53.614;9.894;2023-01-29T08:53:39;102139.34;;;2.52;84.92
21781;BME280;52576;53.614;9.894;2023-01-29T08:55:44;102137.63;;;2.53;84.92
21781;BME280;52576;53.614;9.894;2023-01-29T08:57:48;102134.16;;;2.54;84.76
21781;BME280;52576;53.614;9.894;2023-01-29T08:59:51;102133.31;;;2.53;84.79
21781;BME280;52576;53.614;9.894;2023-01-29T09:01:55;102136.78;;;2.52;85.05
21781;BME280;52576;53.614;9.894;2023-01-29T09:03:58;102137.63;;;2.54;85.00
21781;BME280;52576;53.614;9.894;2023-01-29T09:06:01;102141.06;;;2.55;84.93
21781;BME280;52576;53.614;9.894;2023-01-29T09:08:06;102149.66;;;2.57;85.22
21781;BME280;52576;53.614;9.894;2023-01-29T09:10:10;102144.50;;;2.57;85.06
21781;BME280;52576;53.614;9.894;2023-01-29T09:12:15;102153.97;;;2.58;85.03
21781;BME280;52576;53.614;9.894;2023-01-29T09:14:18;102142.75;;;2.59;85.11
21781;BME280;52576;53.614;9.894;2023-01-29T09:16:22;102149.59;;;2.61;85.29
21781;BME280;52576;53.614;9.894;2023-01-29T09:18:25;102147.84;;;2.63;85.15
21781;BME280;52576;53.614;9.894;2023-01-29T09:20:28;102141.78;;;2.64;85.28
21781;BME280;52576;53.614;9.894;2023-01-29T09:22:32;102136.56;;;2.67;85.16
21781;BME280;52576;53.614;9.894;2023-01-29T09:24:35;102133.97;;;2.69;85.25
21781;BME280;52576;53.614;9.894;2023-01-29T09:26:38;102131.38;;;2.70;85.44
21781;BME280;52576;53.614;9.894;2023-01-29T09:28:43;102128.75;;;2.72;85.41
21781;BME280;52576;53.614;9.894;2023-01-29T09:30:46;102133.94;;;2.72;85.57
21781;BME280;52576;53.614;9.894;2023-01-29T09:32:49;102133.06;;;2.73;85.65
21781;BME280;52576;53.614;9.894;2023-01-29T09:34:55;102127.88;;;2.73;85.68
21781;BME280;52576;53.614;9.894;2023-01-29T09:36:59;102123.53;;;2.75;85.78
21781;BME280;52576;53.614;9.894;2023-01-29T09:39:07;102120.06;;;2.76;85.90
21781;BME280;52576;53.614;9.894;2023-01-29T09:41:23;102115.75;;;2.77;85.80
21781;BME280;52576;53.614;9.894;2023-01-29T09:43:39;102107.09;;;2.79;85.98
21781;BME280;52576;53.614;9.894;2023-01-29T09:45:53;102108.81;;;2.80;86.15
21781;BME280;52576;53.614;9.894;2023-01-29T09:47:59;102109.66;;;2.82;85.92
21781;BME280;52576;53.614;9.894;2023-01-29T09:50:05;102101.00;;;2.83;86.20
21781;BME280;52576;53.614;9.894;2023-01-29T09:52:14;102094.06;;;2.85;86.21
21781;BME280;52576;53.614;9.894;2023-01-29T09:54:23;102090.56;;;2.86;86.31
21781;BME280;52576;53.614;9.894;2023-01-29T09:56:28;102085.34;;;2.89;86.30
21781;BME280;52576;53.614;9.894;2023-01-29T09:58:33;102074.97;;;2.92;86.46
21781;BME280;52576;53.614;9.894;2023-01-29T10:00:41;102078.38;;;2.94;86.54
21781;BME280;52576;53.614;9.894;2023-01-29T10:03:07;102081.81;;;2.96;86.60
21781;BME280;52576;53.614;9.894;2023-01-29T10:05:24;102065.41;;;2.97;86.65
21781;BME280;52576;53.614;9.894;2023-01-29T10:07:46;102069.69;;;2.98;86.69
21781;BME280;52576;53.614;9.894;2023-01-29T10:10:06;102071.41;;;2.99;86.67
21781;BME280;52576;53.614;9.894;2023-01-29T10:12:22;102063.63;;;2.99;86.82
21781;BME280;52576;53.614;9.894;2023-01-29T10:14:35;102050.69;;;2.99;86.73
21781;BME280;52576;53.614;9.894;2023-01-29T10:16:50;102053.31;;;2.98;86.84
21781;BME280;52576;53.614;9.894;2023-01-29T10:19:22;102052.44;;;2.99;86.78
21781;BME280;52576;53.614;9.894;2023-01-29T10:21:58;102055.88;;;2.99;86.95
21781;BME280;52576;53.614;9.894;2023-01-29T10:24:13;102052.44;;;2.97;86.62
21781;BME280;52576;53.614;9.894;2023-01-29T10:26:23;102042.13;;;2.94;86.83
21781;BME280;52576;53.614;9.894;2023-01-29T10:28:32;102043.00;;;2.93;87.23
21781;BME280;52576;53.614;9.894;2023-01-29T10:30:40;102031.78;;;2.94;87.23
21781;BME280;52576;53.614;9.894;2023-01-29T10:32:47;102038.66;;;2.95;87.14
21781;BME280;52576;53.614;9.894;2023-01-29T10:34:55;102035.19;;;2.96;87.08
21781;BME280;52576;53.614;9.894;2023-01-29T10:37:07;102038.63;;;2.97;87.00
21781;BME280;52576;53.614;9.894;2023-01-29T10:39:17;102036.03;;;2.98;87.30
21781;BME280;52576;53.614;9.894;2023-01-29T10:41:39;102030.81;;;3.00;87.18
21781;BME280;52576;53.614;9.894;2023-01-29T10:43:51;102025.63;;;3.01;87.07
21781;BME280;52576;53.614;9.894;2023-01-29T10:46:04;102020.44;;;3.01;87.01
21781;BME280;52576;53.614;9.894;2023-01-29T10:48:40;102019.56;;;3.02;87.00
21781;BME280;52576;53.614;9.894;2023-01-29T10:50:49;102017.84;;;3.03;86.92
21781;BME280;52576;53.614;9.894;2023-01-29T10:53:08;102022.13;;;3.04;87.04
21781;BME280;52576;53.614;9.894;2023-01-29T10:55:22;102004.00;;;3.04;87.01
21781;BME280;52576;53.614;9.894;2023-01-29T10:57:45;101995.38;;;3.03;87.03
21781;BME280;52576;53.614;9.894;2023-01-29T11:00:00;102002.28;;;3.04;86.91
21781;BME280;52576;53.614;9.894;2023-01-29T11:02:12;101991.91;;;3.04;87.00
21781;BME280;52576;53.614;9.894;2023-01-29T11:04:17;102002.28;;;3.04;86.72
21781;BME280;52576;53.614;9.894;2023-01-29T11:06:23;101996.22;;;3.05;86.68
21781;BME280;52576;53.614;9.894;2023-01-29T11:08:33;101991.88;;;3.08;86.96
21781;BME280;52576;53.614;9.894;2023-01-29T11:10:42;101990.09;;;3.10;86.99
21781;BME280;52576;53.614;9.894;2023-01-29T11:12:48;101982.25;;;3.13;86.85
21781;BME280;52576;53.614;9.894;2023-01-29T11:14:54;101983.09;;;3.15;86.90
21781;BME280;52576;53.614;9.894;2023-01-29T11:17:00;101989.97;;;3.16;86.83